Home   Weather   USA   Orlando   Past weeks
Flag for USA

Past Weather in Orlando, Florida, USA — January 2020

Currently: 78 °F. Sunny. (Weather station: Orlando Executive Airport, USA). See more current weather

January 2020 Weather in Orlando — Graph

°F

High & Low Weather Summary for January 2020

 TemperatureHumidityPressure
High85 °F (Jan 11, 2:53 pm)97% (Jan 14, 2:53 am)30.47 "Hg (Jan 14, 2:53 am)
Low35 °F (Jan 22, 6:53 am)21% (Jan 6, 3:53 pm)29.84 "Hg (Jan 30, 12:21 am)
Average65 °F68%30.16 "Hg
* Reported Jan 1 12:53 am — Jan 31 11:53 pm, Orlando. Weather by CustomWeather, © 2022

Note: Actual official high and low records may vary slightly from our data, if they occured in-between our weather recording intervals... More about our weather records

Orlando Weather History for January 1, 2020

Scroll right to see more
 ConditionsComfort  
Time TempWeatherWind HumidityBarometerVisibility
12:53 am
Wed, Jan 1
56 °FClear.5 mph72%30.09 "Hg8 mi
1:53 am56 °FClear.6 mph70%30.08 "Hg10 mi
2:53 am55 °FClear.5 mph72%30.07 "Hg10 mi
3:53 am55 °FClear.6 mph67%30.07 "Hg10 mi
4:53 am55 °FClear.3 mph62%30.07 "Hg10 mi
5:53 am54 °FClear.5 mph59%30.09 "Hg10 mi
6:53 am55 °FPassing clouds.9 mph53%30.10 "Hg10 mi
7:53 am55 °FPassing clouds.7 mph55%30.12 "Hg10 mi
8:53 am57 °FSunny.7 mph53%30.14 "Hg10 mi
9:53 am60 °FSunny.8 mph39%30.16 "Hg10 mi
10:53 am63 °FSunny.7 mph34%30.14 "Hg10 mi
11:53 am65 °FSunny.5 mph31%30.14 "Hg10 mi
12:53 pm66 °FSunny.3 mph32%30.08 "Hg10 mi
1:53 pm68 °FSunny.5 mph32%30.05 "Hg10 mi
2:53 pm69 °FSunny.3 mph30%30.03 "Hg10 mi
3:53 pm69 °FSunny.No wind30%30.03 "Hg10 mi
4:53 pm70 °FSunny.8 mph27%30.06 "Hg10 mi
5:53 pm66 °FClear.6 mph31%30.08 "Hg10 mi
6:53 pm65 °FClear.No wind36%30.09 "Hg10 mi
7:53 pm63 °FClear.5 mph43%30.10 "Hg10 mi
8:53 pm57 °FClear.5 mph67%30.10 "Hg10 mi
9:53 pm58 °FClear.No wind65%30.12 "Hg10 mi
10:53 pm57 °FClear.3 mph69%30.11 "Hg10 mi
11:53 pm58 °FClear.6 mph72%30.09 "Hg10 mi
Weather by CustomWeather, © 2022

See weather overview